RYR5AX LEPA-LFML
Flight info
| Callsign | RYR5AX |
|---|---|
| Flight time | 0h 56m |
| Altitude | 32000 |
| Route | MEROS5A MEROS N853 LUMAS UM976 SOSUR SOSUR1L |
| Aircraft | B38M/M-SDE1FGHILORVWXY/HB1 |
Departure
| Time | 2026-05-04 13:13 |
|---|---|
| Airport | Palma de Mallorca Airport (LEPA) |
Arrival
| Time | 2026-05-04 14:09 |
|---|---|
| Airport | Marseille Provence Airport (LFML) |
| Time | Latitude | Longitude | Altitude | Speed | Heading |
|---|---|---|---|---|---|
| 2026-05-04 12:47 | 39.55053 | 2.73539 | 32 ft | 0 kts | 163° |
| 2026-05-04 12:57 | 39.55053 | 2.73538 | 32 ft | 0 kts | 163° |
| 2026-05-04 13:04 | 39.55067 | 2.73533 | 32 ft | 4 kts | 163° |
| 2026-05-04 13:04 | 39.55087 | 2.73525 | 32 ft | 4 kts | 140° |
| 2026-05-04 13:04 | 39.55091 | 2.73504 | 32 ft | 4 kts | 62° |
| 2026-05-04 13:05 | 39.55078 | 2.73476 | 32 ft | 2 kts | 59° |
| 2026-05-04 13:05 | 39.55077 | 2.73474 | 32 ft | 0 kts | 59° |
| 2026-05-04 13:07 | 39.55078 | 2.73477 | 32 ft | 1 kts | 59° |
| 2026-05-04 13:07 | 39.55088 | 2.73499 | 32 ft | 4 kts | 59° |
| 2026-05-04 13:08 | 39.55108 | 2.73541 | 32 ft | 7 kts | 58° |
| 2026-05-04 13:08 | 39.55139 | 2.73604 | 32 ft | 9 kts | 59° |
| 2026-05-04 13:08 | 39.55171 | 2.73674 | 32 ft | 7 kts | 59° |
| 2026-05-04 13:08 | 39.55172 | 2.73740 | 32 ft | 8 kts | 114° |
| 2026-05-04 13:09 | 39.55182 | 2.73811 | 32 ft | 9 kts | 50° |
| 2026-05-04 13:09 | 39.55226 | 2.73814 | 32 ft | 7 kts | 332° |
| 2026-05-04 13:09 | 39.55280 | 2.73772 | 32 ft | 13 kts | 329° |
| 2026-05-04 13:09 | 39.55389 | 2.73686 | 32 ft | 24 kts | 330° |
| 2026-05-04 13:10 | 39.55531 | 2.73574 | 32 ft | 18 kts | 328° |
| 2026-05-04 13:10 | 39.55621 | 2.73508 | 32 ft | 12 kts | 346° |
| 2026-05-04 13:10 | 39.55688 | 2.73567 | 32 ft | 13 kts | 58° |
| 2026-05-04 13:10 | 39.55740 | 2.73680 | 32 ft | 16 kts | 58° |
| 2026-05-04 13:11 | 39.55806 | 2.73819 | 32 ft | 18 kts | 58° |
| 2026-05-04 13:11 | 39.55862 | 2.73902 | 32 ft | 12 kts | 12° |
| 2026-05-04 13:11 | 39.55953 | 2.73854 | 32 ft | 17 kts | 328° |
| 2026-05-04 13:11 | 39.56001 | 2.73811 | 32 ft | 4 kts | 300° |
| 2026-05-04 13:12 | 39.55992 | 2.73761 | 32 ft | 2 kts | 241° |
| 2026-05-04 13:12 | 39.55991 | 2.73759 | 32 ft | 3 kts | 241° |
| 2026-05-04 13:12 | 39.55849 | 2.73459 | 32 ft | 74 kts | 238° |
| 2026-05-04 13:12 | 39.55478 | 2.72674 | 33 ft | 131 kts | 238° |
| 2026-05-04 13:13 | 39.54924 | 2.71516 | 141 ft | 165 kts | 238° |
| 2026-05-04 13:13 | 39.54348 | 2.70229 | 812 ft | 167 kts | 239° |
| 2026-05-04 13:13 | 39.53728 | 2.68881 | 1243 ft | 179 kts | 237° |
| 2026-05-04 13:13 | 39.53073 | 2.67523 | 1886 ft | 179 kts | 235° |
| 2026-05-04 13:14 | 39.52602 | 2.66596 | 2228 ft | 185 kts | 235° |
| 2026-05-04 13:14 | 39.51854 | 2.65190 | 2622 ft | 198 kts | 234° |
| 2026-05-04 13:14 | 39.51064 | 2.63698 | 3116 ft | 206 kts | 236° |
| 2026-05-04 13:14 | 39.50226 | 2.62092 | 3325 ft | 224 kts | 235° |
| 2026-05-04 13:15 | 39.49301 | 2.60472 | 3946 ft | 222 kts | 229° |
| 2026-05-04 13:15 | 39.48154 | 2.59132 | 4520 ft | 225 kts | 214° |
| 2026-05-04 13:15 | 39.46789 | 2.58103 | 4989 ft | 231 kts | 210° |
| 2026-05-04 13:15 | 39.45351 | 2.57096 | 5330 ft | 240 kts | 209° |
| 2026-05-04 13:16 | 39.43848 | 2.56147 | 5893 ft | 240 kts | 202° |
| 2026-05-04 13:16 | 39.42192 | 2.55852 | 6428 ft | 246 kts | 175° |
| 2026-05-04 13:16 | 39.40579 | 2.56592 | 6951 ft | 252 kts | 151° |
| 2026-05-04 13:16 | 39.39306 | 2.58157 | 7433 ft | 261 kts | 129° |
| 2026-05-04 13:17 | 39.38339 | 2.60161 | 8056 ft | 258 kts | 128° |
| 2026-05-04 13:17 | 39.37216 | 2.61927 | 8423 ft | 260 kts | 141° |
| 2026-05-04 13:17 | 39.35902 | 2.63522 | 8894 ft | 261 kts | 143° |
| 2026-05-04 13:17 | 39.34518 | 2.65123 | 9124 ft | 273 kts | 143° |
| 2026-05-04 13:18 | 39.33089 | 2.66815 | 9340 ft | 285 kts | 142° |
| 2026-05-04 13:18 | 39.31619 | 2.68587 | 9659 ft | 289 kts | 142° |
| 2026-05-04 13:18 | 39.30152 | 2.70400 | 10015 ft | 295 kts | 137° |
| 2026-05-04 13:18 | 39.28991 | 2.72685 | 10082 ft | 318 kts | 115° |
| 2026-05-04 13:19 | 39.28598 | 2.75571 | 10090 ft | 337 kts | 92° |
| 2026-05-04 13:19 | 39.28618 | 2.78627 | 10094 ft | 347 kts | 93° |
| 2026-05-04 13:19 | 39.28604 | 2.81746 | 10070 ft | 355 kts | 93° |
| 2026-05-04 13:19 | 39.28584 | 2.84958 | 10195 ft | 357 kts | 93° |
| 2026-05-04 13:20 | 39.28563 | 2.88161 | 10354 ft | 358 kts | 93° |
| 2026-05-04 13:20 | 39.28550 | 2.91386 | 10528 ft | 360 kts | 90° |
| 2026-05-04 13:20 | 39.29063 | 2.94559 | 10722 ft | 363 kts | 68° |
| 2026-05-04 13:20 | 39.30244 | 2.97450 | 10895 ft | 366 kts | 61° |
| 2026-05-04 13:21 | 39.31503 | 3.00331 | 11537 ft | 368 kts | 61° |
| 2026-05-04 13:21 | 39.32775 | 3.03214 | 12340 ft | 371 kts | 60° |
| 2026-05-04 13:21 | 39.34068 | 3.06128 | 13052 ft | 375 kts | 60° |
| 2026-05-04 13:21 | 39.35355 | 3.09026 | 13805 ft | 379 kts | 60° |
| 2026-05-04 13:22 | 39.36671 | 3.11988 | 14451 ft | 384 kts | 60° |
| 2026-05-04 13:22 | 39.38013 | 3.15012 | 15107 ft | 390 kts | 59° |
| 2026-05-04 13:22 | 39.39375 | 3.18084 | 15747 ft | 396 kts | 59° |
| 2026-05-04 13:22 | 39.40754 | 3.21196 | 16398 ft | 401 kts | 59° |
| 2026-05-04 13:23 | 39.42157 | 3.24366 | 17029 ft | 407 kts | 59° |
| 2026-05-04 13:23 | 39.43612 | 3.27531 | 17652 ft | 412 kts | 57° |
| 2026-05-04 13:23 | 39.45094 | 3.30735 | 18246 ft | 417 kts | 57° |
| 2026-05-04 13:23 | 39.46569 | 3.33939 | 18760 ft | 422 kts | 58° |
| 2026-05-04 13:24 | 39.48095 | 3.37256 | 19305 ft | 426 kts | 58° |
| 2026-05-04 13:24 | 39.49604 | 3.40540 | 19818 ft | 431 kts | 58° |
| 2026-05-04 13:24 | 39.51143 | 3.43894 | 20339 ft | 436 kts | 58° |
| 2026-05-04 13:25 | 39.54257 | 3.50690 | 21455 ft | 442 kts | 59° |
| 2026-05-04 13:25 | 39.55836 | 3.54143 | 21961 ft | 446 kts | 59° |
| 2026-05-04 13:25 | 39.57427 | 3.57625 | 22439 ft | 451 kts | 59° |
| 2026-05-04 13:25 | 39.59034 | 3.61145 | 22951 ft | 455 kts | 59° |
| 2026-05-04 13:26 | 39.60653 | 3.64697 | 23332 ft | 462 kts | 59° |
| 2026-05-04 13:26 | 39.62317 | 3.68351 | 23333 ft | 478 kts | 59° |
| 2026-05-04 13:26 | 39.64034 | 3.72124 | 23383 ft | 492 kts | 59° |
| 2026-05-04 13:26 | 39.65793 | 3.75996 | 23404 ft | 506 kts | 59° |
| 2026-05-04 13:27 | 39.67585 | 3.79947 | 23743 ft | 509 kts | 59° |
| 2026-05-04 13:27 | 39.69372 | 3.83891 | 24099 ft | 513 kts | 59° |
| 2026-05-04 13:27 | 39.71191 | 3.87910 | 24432 ft | 517 kts | 59° |
| 2026-05-04 13:27 | 39.73020 | 3.91957 | 24817 ft | 519 kts | 59° |
| 2026-05-04 13:28 | 39.74842 | 3.95993 | 25185 ft | 522 kts | 59° |
| 2026-05-04 13:28 | 39.76687 | 4.00086 | 25567 ft | 525 kts | 60° |
| 2026-05-04 13:28 | 39.78540 | 4.04203 | 25902 ft | 528 kts | 60° |
| 2026-05-04 13:28 | 39.80390 | 4.08318 | 26243 ft | 531 kts | 60° |
| 2026-05-04 13:29 | 39.82257 | 4.12472 | 26620 ft | 532 kts | 60° |
| 2026-05-04 13:29 | 39.84318 | 4.16470 | 27062 ft | 532 kts | 48° |
| 2026-05-04 13:29 | 39.87009 | 4.19722 | 27519 ft | 526 kts | 33° |
| 2026-05-04 13:29 | 39.90159 | 4.22041 | 27993 ft | 517 kts | 16° |
| 2026-05-04 13:30 | 39.93558 | 4.23241 | 28487 ft | 505 kts | 4° |
| 2026-05-04 13:30 | 39.96991 | 4.24077 | 29043 ft | 503 kts | 5° |
| 2026-05-04 13:30 | 40.00384 | 4.24907 | 29871 ft | 494 kts | 4° |
| 2026-05-04 13:30 | 40.03723 | 4.25701 | 30330 ft | 494 kts | 4° |
| 2026-05-04 13:31 | 40.07127 | 4.26502 | 30551 ft | 499 kts | 4° |
| 2026-05-04 13:31 | 40.10568 | 4.27313 | 30873 ft | 501 kts | 4° |
| 2026-05-04 13:31 | 40.13979 | 4.28116 | 31192 ft | 503 kts | 4° |
| 2026-05-04 13:31 | 40.17441 | 4.28934 | 31466 ft | 505 kts | 4° |
| 2026-05-04 13:32 | 40.20911 | 4.29754 | 31753 ft | 507 kts | 4° |
| 2026-05-04 13:32 | 40.24392 | 4.30576 | 31959 ft | 509 kts | 4° |
| 2026-05-04 13:32 | 40.31361 | 4.32227 | 31954 ft | 506 kts | 4° |
| 2026-05-04 13:33 | 40.38234 | 4.33858 | 31962 ft | 507 kts | 4° |
| 2026-05-04 13:33 | 40.45199 | 4.35515 | 31964 ft | 509 kts | 4° |
| 2026-05-04 13:34 | 40.52170 | 4.37176 | 31964 ft | 509 kts | 4° |
| 2026-05-04 13:34 | 40.59150 | 4.38843 | 31958 ft | 509 kts | 4° |
| 2026-05-04 13:35 | 40.69562 | 4.41336 | 31956 ft | 509 kts | 4° |
| 2026-05-04 13:36 | 40.76545 | 4.43012 | 31962 ft | 509 kts | 4° |
| 2026-05-04 13:36 | 40.83523 | 4.44691 | 31976 ft | 509 kts | 4° |
| 2026-05-04 13:37 | 40.90485 | 4.46372 | 31955 ft | 511 kts | 4° |
| 2026-05-04 13:37 | 40.97495 | 4.48070 | 31959 ft | 512 kts | 4° |
| 2026-05-04 13:38 | 41.04499 | 4.49770 | 31990 ft | 511 kts | 4° |
| 2026-05-04 13:38 | 41.11483 | 4.51468 | 31946 ft | 510 kts | 5° |
| 2026-05-04 13:39 | 41.18479 | 4.53173 | 31959 ft | 511 kts | 5° |
| 2026-05-04 13:39 | 41.21931 | 4.54016 | 31962 ft | 510 kts | 5° |
| 2026-05-04 13:40 | 41.38158 | 4.57988 | 31936 ft | 508 kts | 4° |
| 2026-05-04 13:41 | 41.45119 | 4.59698 | 31944 ft | 508 kts | 4° |
| 2026-05-04 13:41 | 41.52027 | 4.61400 | 31956 ft | 506 kts | 5° |
| 2026-05-04 13:42 | 41.62399 | 4.63960 | 31958 ft | 505 kts | 5° |
| 2026-05-04 13:42 | 41.69272 | 4.65662 | 31975 ft | 505 kts | 5° |
| 2026-05-04 13:43 | 41.76157 | 4.67810 | 31971 ft | 506 kts | 11° |
| 2026-05-04 13:43 | 41.82909 | 4.70456 | 31336 ft | 502 kts | 12° |
| 2026-05-04 13:44 | 41.86204 | 4.71761 | 30500 ft | 505 kts | 12° |
| 2026-05-04 13:44 | 41.89583 | 4.73100 | 29780 ft | 505 kts | 12° |
| 2026-05-04 13:45 | 42.02591 | 4.78269 | 27757 ft | 480 kts | 12° |
| 2026-05-04 13:45 | 42.05755 | 4.79530 | 27221 ft | 477 kts | 12° |
| 2026-05-04 13:45 | 42.08927 | 4.80796 | 26707 ft | 474 kts | 12° |
| 2026-05-04 13:46 | 42.12082 | 4.82056 | 26165 ft | 471 kts | 13° |
| 2026-05-04 13:46 | 42.15200 | 4.83301 | 25656 ft | 466 kts | 13° |
| 2026-05-04 13:46 | 42.18306 | 4.84544 | 25148 ft | 463 kts | 13° |
| 2026-05-04 13:46 | 42.21386 | 4.85778 | 24635 ft | 459 kts | 13° |
| 2026-05-04 13:47 | 42.24447 | 4.87006 | 24131 ft | 456 kts | 13° |
| 2026-05-04 13:47 | 42.27441 | 4.88207 | 23628 ft | 454 kts | 13° |
| 2026-05-04 13:47 | 42.30468 | 4.89424 | 23063 ft | 451 kts | 13° |
| 2026-05-04 13:47 | 42.33458 | 4.90627 | 22522 ft | 447 kts | 13° |
| 2026-05-04 13:48 | 42.36432 | 4.91824 | 22037 ft | 442 kts | 13° |
| 2026-05-04 13:48 | 42.39359 | 4.93003 | 21570 ft | 437 kts | 13° |
| 2026-05-04 13:48 | 42.42269 | 4.94177 | 21077 ft | 433 kts | 14° |
| 2026-05-04 13:48 | 42.45138 | 4.95335 | 20603 ft | 429 kts | 14° |
| 2026-05-04 13:49 | 42.47988 | 4.96487 | 20141 ft | 425 kts | 14° |
| 2026-05-04 13:49 | 42.50777 | 4.97615 | 19697 ft | 421 kts | 14° |
| 2026-05-04 13:49 | 42.53576 | 4.98748 | 19261 ft | 418 kts | 14° |
| 2026-05-04 13:49 | 42.56371 | 4.99756 | 18753 ft | 414 kts | 6° |
| 2026-05-04 13:50 | 42.59229 | 5.00075 | 18319 ft | 409 kts | 2° |
| 2026-05-04 13:50 | 42.62066 | 5.00381 | 17816 ft | 407 kts | 2° |
| 2026-05-04 13:50 | 42.64874 | 5.00685 | 17334 ft | 398 kts | 2° |
| 2026-05-04 13:50 | 42.67588 | 5.00977 | 16888 ft | 385 kts | 2° |
| 2026-05-04 13:51 | 42.70211 | 5.01258 | 16447 ft | 380 kts | 2° |
| 2026-05-04 13:51 | 42.72849 | 5.01542 | 16008 ft | 379 kts | 2° |
| 2026-05-04 13:51 | 42.75462 | 5.01822 | 15581 ft | 376 kts | 2° |
| 2026-05-04 13:51 | 42.78074 | 5.02103 | 15143 ft | 374 kts | 2° |
| 2026-05-04 13:52 | 42.82974 | 5.04159 | 14483 ft | 373 kts | 25° |
| 2026-05-04 13:52 | 42.85316 | 5.05708 | 14192 ft | 373 kts | 25° |
| 2026-05-04 13:52 | 42.87638 | 5.07268 | 13886 ft | 371 kts | 26° |
| 2026-05-04 13:53 | 42.89946 | 5.08835 | 13539 ft | 370 kts | 26° |
| 2026-05-04 13:53 | 42.92235 | 5.10373 | 13193 ft | 367 kts | 22° |
| 2026-05-04 13:53 | 42.94670 | 5.11159 | 12806 ft | 361 kts | 359° |
| 2026-05-04 13:54 | 42.99526 | 5.09988 | 12279 ft | 356 kts | 343° |
| 2026-05-04 13:54 | 43.01932 | 5.09191 | 11961 ft | 355 kts | 343° |
| 2026-05-04 13:54 | 43.06677 | 5.07571 | 11368 ft | 347 kts | 343° |
| 2026-05-04 13:55 | 43.09003 | 5.06764 | 11071 ft | 338 kts | 343° |
| 2026-05-04 13:55 | 43.13380 | 5.05238 | 10523 ft | 312 kts | 342° |
| 2026-05-04 13:55 | 43.15474 | 5.04506 | 10271 ft | 310 kts | 343° |
| 2026-05-04 13:56 | 43.17553 | 5.03779 | 10004 ft | 309 kts | 342° |
| 2026-05-04 13:56 | 43.19639 | 5.03049 | 9721 ft | 309 kts | 342° |
| 2026-05-04 13:56 | 43.23682 | 5.01675 | 9394 ft | 280 kts | 327° |
| 2026-05-04 13:57 | 43.25424 | 5.00522 | 9407 ft | 289 kts | 334° |
| 2026-05-04 13:57 | 43.27312 | 4.99427 | 9255 ft | 299 kts | 333° |
| 2026-05-04 13:58 | 43.33194 | 4.96172 | 8384 ft | 305 kts | 335° |
| 2026-05-04 13:58 | 43.37106 | 4.94056 | 7783 ft | 299 kts | 334° |
| 2026-05-04 13:58 | 43.39029 | 4.93016 | 7488 ft | 296 kts | 336° |
| 2026-05-04 13:59 | 43.40938 | 4.91983 | 7253 ft | 290 kts | 334° |
| 2026-05-04 13:59 | 43.42791 | 4.90976 | 7028 ft | 285 kts | 334° |
| 2026-05-04 13:59 | 43.46485 | 4.88974 | 6503 ft | 285 kts | 336° |
| 2026-05-04 14:00 | 43.48345 | 4.87954 | 6428 ft | 289 kts | 335° |
| 2026-05-04 14:00 | 43.52164 | 4.85898 | 6044 ft | 293 kts | 336° |
| 2026-05-04 14:00 | 43.54012 | 4.84880 | 5897 ft | 291 kts | 337° |
| 2026-05-04 14:01 | 43.55893 | 4.83928 | 5617 ft | 285 kts | 346° |
| 2026-05-04 14:01 | 43.57820 | 4.84047 | 5301 ft | 275 kts | 22° |
| 2026-05-04 14:01 | 43.60244 | 4.87460 | 5091 ft | 232 kts | 64° |
| 2026-05-04 14:02 | 43.61052 | 4.89319 | 5027 ft | 224 kts | 65° |
| 2026-05-04 14:02 | 43.61848 | 4.91172 | 4961 ft | 224 kts | 66° |
| 2026-05-04 14:02 | 43.62477 | 4.93099 | 4827 ft | 214 kts | 89° |
| 2026-05-04 14:02 | 43.62171 | 4.94942 | 4602 ft | 196 kts | 128° |
| 2026-05-04 14:03 | 43.61283 | 4.96339 | 4587 ft | 194 kts | 137° |
| 2026-05-04 14:03 | 43.60338 | 4.97668 | 4334 ft | 193 kts | 136° |
| 2026-05-04 14:03 | 43.59406 | 4.98998 | 4100 ft | 192 kts | 136° |
| 2026-05-04 14:03 | 43.58492 | 5.00308 | 3822 ft | 188 kts | 135° |
| 2026-05-04 14:04 | 43.56700 | 5.02881 | 3363 ft | 183 kts | 134° |
| 2026-05-04 14:04 | 43.55831 | 5.04125 | 3155 ft | 176 kts | 134° |
| 2026-05-04 14:04 | 43.55002 | 5.05312 | 2930 ft | 166 kts | 133° |
| 2026-05-04 14:05 | 43.53464 | 5.07513 | 2497 ft | 156 kts | 133° |
| 2026-05-04 14:05 | 43.52713 | 5.08588 | 2290 ft | 156 kts | 133° |
| 2026-05-04 14:05 | 43.51957 | 5.09671 | 2089 ft | 157 kts | 132° |
| 2026-05-04 14:06 | 43.51212 | 5.10739 | 1863 ft | 150 kts | 133° |
| 2026-05-04 14:06 | 43.50520 | 5.11727 | 1670 ft | 140 kts | 133° |
| 2026-05-04 14:06 | 43.49857 | 5.12676 | 1485 ft | 136 kts | 133° |
| 2026-05-04 14:06 | 43.49201 | 5.13612 | 1310 ft | 135 kts | 133° |
| 2026-05-04 14:07 | 43.48548 | 5.14545 | 1159 ft | 133 kts | 133° |
| 2026-05-04 14:07 | 43.47920 | 5.15443 | 961 ft | 127 kts | 134° |
| 2026-05-04 14:07 | 43.47305 | 5.16312 | 782 ft | 129 kts | 133° |
| 2026-05-04 14:07 | 43.46697 | 5.17206 | 633 ft | 129 kts | 132° |
| 2026-05-04 14:08 | 43.46066 | 5.18071 | 431 ft | 124 kts | 133° |
| 2026-05-04 14:08 | 43.45494 | 5.18900 | 246 ft | 118 kts | 131° |
| 2026-05-04 14:08 | 43.44912 | 5.19730 | 144 ft | 120 kts | 132° |
| 2026-05-04 14:08 | 43.44353 | 5.20534 | 41 ft | 111 kts | 133° |
| 2026-05-04 14:09 | 43.43761 | 5.21376 | 39 ft | 27 kts | 134° |
| 2026-05-04 14:09 | 43.43633 | 5.21559 | 39 ft | 26 kts | 134° |
| 2026-05-04 14:10 | 43.43386 | 5.21911 | 37 ft | 20 kts | 133° |
| 2026-05-04 14:10 | 43.43333 | 5.22078 | 39 ft | 19 kts | 90° |
| 2026-05-04 14:10 | 43.43344 | 5.22227 | 37 ft | 14 kts | 66° |
| 2026-05-04 14:10 | 43.43427 | 5.22276 | 40 ft | 15 kts | 341° |
| 2026-05-04 14:11 | 43.43528 | 5.22199 | 40 ft | 18 kts | 330° |
| 2026-05-04 14:11 | 43.43760 | 5.22012 | 40 ft | 20 kts | 323° |
| 2026-05-04 14:11 | 43.43852 | 5.21886 | 40 ft | 13 kts | 314° |
| 2026-05-04 14:12 | 43.43910 | 5.21877 | 40 ft | 10 kts | 30° |
| 2026-05-04 14:12 | 43.43965 | 5.21945 | 40 ft | 11 kts | 45° |
| 2026-05-04 14:12 | 43.44093 | 5.21893 | 37 ft | 11 kts | 314° |
| 2026-05-04 14:13 | 43.44112 | 5.21824 | 40 ft | 5 kts | 255° |
| 2026-05-04 14:13 | 43.44107 | 5.21802 | 40 ft | 0 kts | 264° |
| 2026-05-04 14:13 | 43.44107 | 5.21800 | 40 ft | 1 kts | 259° |
| 2026-05-04 14:13 | 43.44100 | 5.21787 | 37 ft | 2 kts | 223° |
| 2026-05-04 14:14 | 43.44092 | 5.21751 | 40 ft | 5 kts | 289° |
| 2026-05-04 14:14 | 43.44130 | 5.21701 | 40 ft | 2 kts | 358° |
| 2026-05-04 14:14 | 43.44148 | 5.21707 | 40 ft | 4 kts | 21° |
| 2026-05-04 14:15 | 43.44164 | 5.21737 | 39 ft | 0 kts | 81° |
| 2026-05-04 14:15 | 43.44163 | 5.21751 | 40 ft | 1 kts | 88° |
| 2026-05-04 14:16 | 43.44164 | 5.21758 | 40 ft | 0 kts | 88° |
| 2026-05-04 14:19 | 43.44164 | 5.21757 | 40 ft | 0 kts | 88° |